Time;durP1;ratioP1;P1;durP2;ratioP2;P2;SDS_P1;SDS_P2;PMS_P1;PMS_P2;Temp;Humidity;BMP_temperature;BMP_pressure;BME280_temperature;BME280_humidity;BME280_pressure;Samples;Min_cycle;Max_cycle;Signal;HPM_P1;HPM_P2
2023/06/08 00:01:29;;;;;;;;;;;;;;;23.00;37.39;101184.13;4112226;28;19927;-60
2023/06/08 00:03:31;;;;;;;;;;;;;;;22.98;37.39;101189.63;4112495;28;20025;-59
2023/06/08 00:05:43;;;;;;;;;;;;;;;22.97;37.34;101177.16;4112610;28;20360;-60
2023/06/08 00:07:46;;;;;;;;;;;;;;;22.96;37.22;101180.81;4111833;28;19972;-60
2023/06/08 00:09:48;;;;;;;;;;;;;;;22.95;37.29;101184.47;4111455;28;19926;-60
2023/06/08 00:11:50;;;;;;;;;;;;;;;22.95;37.47;101179.13;4112390;28;19927;-59
2023/06/08 00:13:51;;;;;;;;;;;;;;;22.94;37.40;101180.09;4112434;28;19973;-60
2023/06/08 00:15:53;;;;;;;;;;;;;;;22.92;37.25;101174.03;4112330;28;20001;-59
2023/06/08 00:17:56;;;;;;;;;;;;;;;22.92;37.58;101168.66;4112518;28;19934;-60
2023/06/08 00:19:59;;;;;;;;;;;;;;;22.90;37.33;101163.38;4111355;28;19931;-60
2023/06/08 00:22:04;;;;;;;;;;;;;;;22.89;37.50;101161.72;4114472;28;20403;-60
2023/06/08 00:24:06;;;;;;;;;;;;;;;22.89;37.51;101159.03;4115009;28;19949;-60
2023/06/08 00:26:08;;;;;;;;;;;;;;;22.89;37.59;101158.16;4114938;28;19930;-60
2023/06/08 00:28:09;;;;;;;;;;;;;;;22.88;37.56;101154.63;4115070;28;19926;-60
2023/06/08 00:30:13;;;;;;;;;;;;;;;22.88;37.57;101153.78;4113771;28;20001;-60
2023/06/08 00:32:15;;;;;;;;;;;;;;;22.87;37.48;101155.59;4115118;28;19952;-60
2023/06/08 00:34:17;;;;;;;;;;;;;;;22.86;37.70;101159.25;4122695;28;19995;-60
2023/06/08 00:36:19;;;;;;;;;;;;;;;22.86;37.69;101155.75;4130630;28;20303;-60
2023/06/08 00:38:21;;;;;;;;;;;;;;;22.84;37.70;101145.13;4125118;28;20346;-60
2023/06/08 00:40:22;;;;;;;;;;;;;;;22.83;37.64;101153.28;4113716;28;20024;-60
2023/06/08 00:42:24;;;;;;;;;;;;;;;22.83;37.70;101145.25;4114811;28;20270;-61
2023/06/08 00:44:25;;;;;;;;;;;;;;;22.82;37.57;101152.44;4114629;28;20020;-60
2023/06/08 00:46:32;;;;;;;;;;;;;;;22.81;37.54;101145.38;4114550;28;19926;-60
2023/06/08 00:48:34;;;;;;;;;;;;;;;22.80;37.70;101139.16;4114570;28;19926;-60
2023/06/08 00:50:36;;;;;;;;;;;;;;;22.80;37.89;101144.50;4113249;28;19926;-60
2023/06/08 00:52:39;;;;;;;;;;;;;;;22.79;37.79;101140.13;4114724;28;19926;-60
2023/06/08 00:54:43;;;;;;;;;;;;;;;22.79;37.64;101144.66;4114479;28;19933;-60
2023/06/08 00:56:48;;;;;;;;;;;;;;;22.78;37.79;101141.13;4114485;28;20017;-60
2023/06/08 00:58:52;;;;;;;;;;;;;;;22.78;37.84;101135.75;4114580;28;20140;-60
2023/06/08 01:00:59;;;;;;;;;;;;;;;22.77;37.89;101139.41;4113451;28;20408;-60
2023/06/08 01:03:01;;;;;;;;;;;;;;;22.75;37.94;101129.78;4114575;28;19965;-59
2023/06/08 01:05:03;;;;;;;;;;;;;;;22.74;37.92;101134.28;4114158;28;19930;-60
2023/06/08 01:07:14;;;;;;;;;;;;;;;22.74;37.78;101126.25;4114462;28;19937;-60
2023/06/08 01:09:22;;;;;;;;;;;;;;;22.73;37.74;101132.56;4114462;28;19930;-60
2023/06/08 01:11:32;;;;;;;;;;;;;;;22.72;38.04;101127.34;4113778;28;19980;-59
2023/06/08 01:13:43;;;;;;;;;;;;;;;22.73;37.56;101129.06;4114311;28;19936;-61
2023/06/08 01:15:48;;;;;;;;;;;;;;;22.70;38.01;101123.91;4114387;28;19926;-59
2023/06/08 01:17:53;;;;;;;;;;;;;;;22.70;37.94;101126.59;4114275;28;20020;-59
2023/06/08 01:20:06;;;;;;;;;;;;;;;22.69;38.14;101133.81;4113061;28;20056;-60
2023/06/08 01:22:10;;;;;;;;;;;;;;;22.69;38.06;101131.13;4129024;28;19984;-60
2023/06/08 01:24:20;;;;;;;;;;;;;;;22.68;38.00;101131.25;4114281;28;19976;-60
2023/06/08 01:26:22;;;;;;;;;;;;;;;22.68;37.85;101133.94;4114189;28;19926;-59
2023/06/08 01:28:24;;;;;;;;;;;;;;;22.68;38.12;101144.66;4114294;28;19950;-59
2023/06/08 01:30:26;;;;;;;;;;;;;;;22.67;37.94;101143.78;4112779;28;19948;-59
2023/06/08 01:32:27;;;;;;;;;;;;;;;22.66;37.92;101136.72;4113479;28;19926;-58
2023/06/08 01:34:29;;;;;;;;;;;;;;;22.66;38.04;101142.09;4123123;28;19926;-59
2023/06/08 01:36:43;;;;;;;;;;;;;;;22.66;37.84;101139.41;4130245;28;20307;-59
2023/06/08 01:39:01;;;;;;;;;;;;;;;22.67;37.96;101142.97;4121213;28;19926;-59
2023/06/08 01:41:05;;;;;;;;;;;;;;;22.64;37.83;101142.22;4111741;28;19926;-59
2023/06/08 01:43:09;;;;;;;;;;;;;;;22.63;38.34;101143.19;4113736;28;19972;-59
2023/06/08 01:45:17;;;;;;;;;;;;;;;22.62;38.24;101144.16;4113994;28;19926;-59
2023/06/08 01:47:20;;;;;;;;;;;;;;;22.62;38.27;101141.47;4113727;28;19941;-58
2023/06/08 01:49:26;;;;;;;;;;;;;;;22.61;38.41;101139.81;4113928;28;19926;-58
2023/06/08 01:51:28;;;;;;;;;;;;;;;22.61;38.43;101146.97;4113215;28;20379;-59
2023/06/08 01:53:30;;;;;;;;;;;;;;;22.60;38.40;101143.44;4113896;28;19926;-59
2023/06/08 01:55:31;;;;;;;;;;;;;;;22.60;38.18;101151.50;4113896;28;20013;-60
2023/06/08 01:57:33;;;;;;;;;;;;;;;22.59;38.19;101147.09;4113831;28;19970;-60
2023/06/08 01:59:35;;;;;;;;;;;;;;;22.59;38.11;101141.75;4113385;28;19926;-59
2023/06/08 02:01:38;;;;;;;;;;;;;;;22.60;38.21;101147.94;4113473;28;20391;-59
2023/06/08 02:03:39;;;;;;;;;;;;;;;22.59;38.03;101146.22;4113485;28;19930;-59
2023/06/08 02:05:41;;;;;;;;;;;;;;;22.58;38.17;101150.75;4113709;28;19926;-59
2023/06/08 02:07:42;;;;;;;;;;;;;;;22.57;38.46;101151.72;4113886;28;19926;-59
2023/06/08 02:09:44;;;;;;;;;;;;;;;22.56;38.06;101150.00;4143799;28;20414;-59
2023/06/08 02:11:46;;;;;;;;;;;;;;;22.56;38.54;101143.81;4113520;28;20397;-60
2023/06/08 02:13:47;;;;;;;;;;;;;;;22.55;38.56;101144.78;4113800;28;19932;-59
2023/06/08 02:15:51;;;;;;;;;;;;;;;22.55;38.49;101148.31;4113569;28;19926;-59
2023/06/08 02:17:53;;;;;;;;;;;;;;;22.54;38.65;101145.75;4113363;28;20032;-60
2023/06/08 02:19:54;;;;;;;;;;;;;;;22.53;38.28;101149.41;4112818;28;20014;-60
2023/06/08 02:21:57;;;;;;;;;;;;;;;22.52;38.64;101147.69;4113276;28;20033;-60
2023/06/08 02:23:59;;;;;;;;;;;;;;;22.52;38.48;101142.34;4113492;28;19930;-60
2023/06/08 02:26:00;;;;;;;;;;;;;;;22.51;38.71;101141.50;4113469;28;20402;-59
2023/06/08 02:28:02;;;;;;;;;;;;;;;22.51;38.59;101146.00;4113157;28;19926;-60
2023/06/08 02:30:05;;;;;;;;;;;;;;;22.49;38.51;101143.44;4112274;28;19966;-60
2023/06/08 02:32:08;;;;;;;;;;;;;;;22.49;38.72;101140.75;4111892;28;19926;-60
2023/06/08 02:34:10;;;;;;;;;;;;;;;22.49;38.63;101146.13;4120036;28;19947;-60
2023/06/08 02:36:11;;;;;;;;;;;;;;;22.47;38.45;101146.25;4129557;28;19930;-60
2023/06/08 02:38:13;;;;;;;;;;;;;;;22.47;38.69;101145.41;4124862;28;20419;-60
2023/06/08 02:40:15;;;;;;;;;;;;;;;22.47;38.60;101148.09;4112310;28;19982;-60
2023/06/08 02:42:18;;;;;;;;;;;;;;;22.46;38.71;101141.84;4113187;28;20021;-60
2023/06/08 02:44:20;;;;;;;;;;;;;;;22.46;38.77;101139.19;4113250;28;19949;-59
2023/06/08 02:46:21;;;;;;;;;;;;;;;22.47;38.65;101142.72;4112908;28;19968;-59
2023/06/08 02:48:23;;;;;;;;;;;;;;;22.47;38.84;101142.72;4113137;28;19958;-59
2023/06/08 02:50:24;;;;;;;;;;;;;;;22.46;38.80;101141.84;4112231;28;19932;-60
2023/06/08 02:52:26;;;;;;;;;;;;;;;22.45;38.62;101139.31;4113214;28;20491;-59
2023/06/08 02:54:27;;;;;;;;;;;;;;;22.45;38.92;101140.13;4113362;28;19927;-59
2023/06/08 02:56:29;;;;;;;;;;;;;;;22.43;38.76;101141.25;4113075;28;19972;-59
2023/06/08 02:58:31;;;;;;;;;;;;;;;22.44;38.94;101134.91;4113084;28;19956;-59
2023/06/08 03:00:34;;;;;;;;;;;;;;;22.43;39.05;101133.19;4111725;28;20314;-59
2023/06/08 03:02:35;;;;;;;;;;;;;;;22.42;38.99;101129.69;4112960;28;19934;-60
2023/06/08 03:04:37;;;;;;;;;;;;;;;22.43;38.88;101138.56;4112742;28;19986;-59
2023/06/08 03:06:38;;;;;;;;;;;;;;;22.42;38.94;101131.50;4144230;28;19926;-59
2023/06/08 03:08:46;;;;;;;;;;;;;;;22.41;38.93;101130.66;4113006;28;20009;-59
2023/06/08 03:10:48;;;;;;;;;;;;;;;22.42;38.89;101131.50;4111856;28;19971;-60
2023/06/08 03:12:50;;;;;;;;;;;;;;;22.41;38.93;101129.81;4113092;28;19981;-59
2023/06/08 03:14:53;;;;;;;;;;;;;;;22.41;38.88;101136.00;4113029;28;19933;-60
2023/06/08 03:17:01;;;;;;;;;;;;;;;22.41;39.01;101130.66;4112844;28;19926;-59
2023/06/08 03:19:03;;;;;;;;;;;;;;;22.40;38.96;101131.63;4113070;28;19926;-60
2023/06/08 03:21:04;;;;;;;;;;;;;;;22.41;38.65;101129.81;4111923;28;19997;-59
2023/06/08 03:23:06;;;;;;;;;;;;;;;22.40;39.02;101128.09;4112853;28;20790;-59
2023/06/08 03:25:08;;;;;;;;;;;;;;;22.39;38.74;101127.22;4112997;28;19930;-59
2023/06/08 03:27:10;;;;;;;;;;;;;;;22.38;38.72;101133.56;4112706;28;19938;-59
2023/06/08 03:29:11;;;;;;;;;;;;;;;22.38;38.97;101128.19;4112634;28;20008;-58
2023/06/08 03:31:13;;;;;;;;;;;;;;;22.37;39.04;101126.50;4110131;28;19973;-58
2023/06/08 03:33:15;;;;;;;;;;;;;;;22.37;38.73;101123.81;4112841;28;20025;-59
2023/06/08 03:35:17;;;;;;;;;;;;;;;22.37;38.67;101118.44;4128541;28;20374;-59
2023/06/08 03:37:19;;;;;;;;;;;;;;;22.36;39.01;101122.09;4128942;28;19968;-59
2023/06/08 03:39:21;;;;;;;;;;;;;;;22.36;39.04;101124.78;4115018;28;19926;-59
2023/06/08 03:41:22;;;;;;;;;;;;;;;22.36;38.72;101123.91;4111705;28;19960;-59
2023/06/08 03:43:24;;;;;;;;;;;;;;;22.34;38.85;101119.53;4112320;28;19969;-58
2023/06/08 03:45:26;;;;;;;;;;;;;;;22.34;38.99;101127.56;4111073;28;19957;-59
2023/06/08 03:47:27;;;;;;;;;;;;;;;22.35;39.05;101128.44;4111301;28;19937;-59
2023/06/08 03:49:29;;;;;;;;;;;;;;;22.36;39.01;101123.91;4112596;28;19953;-59
2023/06/08 03:51:31;;;;;;;;;;;;;;;22.33;39.09;101116.97;4111782;28;19980;-60
2023/06/08 03:53:32;;;;;;;;;;;;;;;22.33;39.04;101115.16;4112646;28;20433;-59
2023/06/08 03:55:34;;;;;;;;;;;;;;;22.33;39.04;101116.97;4112985;28;19966;-59
2023/06/08 03:57:36;;;;;;;;;;;;;;;22.32;38.99;101116.13;4115572;28;19957;-59
2023/06/08 03:59:38;;;;;;;;;;;;;;;22.33;38.98;101116.97;4114941;28;19969;-59
2023/06/08 04:01:41;;;;;;;;;;;;;;;22.31;39.21;101118.94;4114187;28;19975;-59
2023/06/08 04:03:43;;;;;;;;;;;;;;;22.30;39.08;101115.38;4115353;28;20009;-59
2023/06/08 04:05:44;;;;;;;;;;;;;;;22.30;39.05;101115.38;4115090;28;19972;-59
2023/06/08 04:07:50;;;;;;;;;;;;;;;22.29;39.02;101118.19;4114999;28;19930;-59
2023/06/08 04:09:52;;;;;;;;;;;;;;;22.29;39.14;101116.34;4115086;28;19927;-59
2023/06/08 04:11:54;;;;;;;;;;;;;;;22.29;38.94;101115.53;4113904;28;19968;-60
2023/06/08 04:13:55;;;;;;;;;;;;;;;22.28;39.02;101114.66;4114755;28;19934;-59
2023/06/08 04:15:57;;;;;;;;;;;;;;;22.27;38.93;101114.78;4115074;28;19937;-60
2023/06/08 04:17:59;;;;;;;;;;;;;;;22.26;39.21;101119.31;4114997;28;20013;-59
2023/06/08 04:20:00;;;;;;;;;;;;;;;22.26;39.25;101119.31;4114917;28;19942;-59
2023/06/08 04:22:04;;;;;;;;;;;;;;;22.26;39.21;101126.47;4113165;28;20029;-59
2023/06/08 04:24:06;;;;;;;;;;;;;;;22.25;39.15;101119.41;4114874;28;19972;-59
2023/06/08 04:26:08;;;;;;;;;;;;;;;22.25;39.19;101122.06;4114975;28;19961;-59
2023/06/08 04:28:09;;;;;;;;;;;;;;;22.24;38.92;101115.88;4114586;28;19926;-59
2023/06/08 04:30:12;;;;;;;;;;;;;;;22.22;39.11;101114.31;4113797;28;19969;-58
2023/06/08 04:32:13;;;;;;;;;;;;;;;22.23;39.14;101107.97;4114477;28;19972;-59
2023/06/08 04:34:15;;;;;;;;;;;;;;;22.21;39.21;101110.75;4122502;28;19929;-59
2023/06/08 04:36:17;;;;;;;;;;;;;;;22.22;39.35;101109.78;4130947;28;19926;-58
2023/06/08 04:38:18;;;;;;;;;;;;;;;22.21;38.92;101110.75;4125448;28;19926;-59
2023/06/08 04:40:20;;;;;;;;;;;;;;;22.21;39.34;101116.09;4113939;28;19933;-59
2023/06/08 04:42:23;;;;;;;;;;;;;;;22.20;38.93;101114.44;4114333;28;19926;-58
2023/06/08 04:44:25;;;;;;;;;;;;;;;22.20;38.97;101117.09;4114496;28;19926;-58
2023/06/08 04:46:28;;;;;;;;;;;;;;;22.20;39.09;101118.91;4114473;28;19930;-59
2023/06/08 04:48:29;;;;;;;;;;;;;;;22.20;39.21;101113.56;4114660;28;19930;-58
2023/06/08 04:50:33;;;;;;;;;;;;;;;22.18;39.22;101119.88;4113886;28;20415;-58
2023/06/08 04:52:45;;;;;;;;;;;;;;;22.19;39.37;101110.03;4114671;28;19926;-61
2023/06/08 04:54:52;;;;;;;;;;;;;;;22.17;39.35;101114.66;4114817;28;20474;-59
2023/06/08 04:56:58;;;;;;;;;;;;;;;22.17;39.44;101111.97;4114406;28;20019;-58
2023/06/08 04:59:00;;;;;;;;;;;;;;;22.15;39.42;101112.09;4114537;28;19926;-59
2023/06/08 05:01:01;;;;;;;;;;;;;;;22.15;39.48;101113.91;4112419;28;19926;-59
2023/06/08 05:03:03;;;;;;;;;;;;;;;22.14;39.34;101109.53;4114690;28;20305;-59
2023/06/08 05:05:05;;;;;;;;;;;;;;;22.14;39.36;101115.75;4114447;28;20080;-59
2023/06/08 05:07:07;;;;;;;;;;;;;;;22.14;39.34;101109.53;4113209;28;19934;-58
2023/06/08 05:09:09;;;;;;;;;;;;;;;22.12;39.16;101112.34;4114336;28;19933;-59
2023/06/08 05:11:11;;;;;;;;;;;;;;;22.12;39.46;101108.81;4112920;28;19934;-59
2023/06/08 05:13:13;;;;;;;;;;;;;;;22.12;39.52;101119.53;4113283;28;19930;-59
2023/06/08 05:15:15;;;;;;;;;;;;;;;22.11;39.29;101115.97;4114323;28;20345;-59
2023/06/08 05:17:16;;;;;;;;;;;;;;;22.11;39.41;101124.00;4114264;28;20016;-59
2023/06/08 05:19:18;;;;;;;;;;;;;;;22.09;39.45;101119.75;4114032;28;19934;-59
2023/06/08 05:21:19;;;;;;;;;;;;;;;22.08;39.36;101118.03;4113237;28;19926;-59
2023/06/08 05:23:21;;;;;;;;;;;;;;;22.08;39.47;101129.63;4114212;28;19972;-59
2023/06/08 05:25:23;;;;;;;;;;;;;;;22.06;39.58;101115.50;4114096;28;20009;-60
2023/06/08 05:27:25;;;;;;;;;;;;;;;22.08;39.86;101120.72;4114106;28;19930;-62
2023/06/08 05:29:26;;;;;;;;;;;;;;;22.06;39.56;101112.81;4114032;28;19973;-59
2023/06/08 05:31:28;;;;;;;;;;;;;;;22.07;39.69;101125.25;4113289;28;20379;-59
2023/06/08 05:33:29;;;;;;;;;;;;;;;22.08;39.71;101118.03;4115442;28;19927;-59
2023/06/08 05:35:31;;;;;;;;;;;;;;;22.07;39.85;101119.88;4130212;28;19926;-61
2023/06/08 05:37:33;;;;;;;;;;;;;;;22.06;39.59;101115.50;4130018;28;19963;-60
2023/06/08 05:39:34;;;;;;;;;;;;;;;22.06;39.85;101112.81;4114733;28;19926;-59
2023/06/08 05:41:36;;;;;;;;;;;;;;;22.07;39.91;101108.31;4112792;28;20394;-59
2023/06/08 05:43:37;;;;;;;;;;;;;;;22.05;39.79;101105.75;4112834;28;19936;-60
2023/06/08 05:45:39;;;;;;;;;;;;;;;22.05;39.91;101111.09;4113934;28;20403;-62
2023/06/08 05:47:41;;;;;;;;;;;;;;;22.05;39.94;101108.44;4113669;28;19941;-58
2023/06/08 05:49:42;;;;;;;;;;;;;;;22.04;40.04;101112.06;4113849;28;20349;-58
2023/06/08 05:51:49;;;;;;;;;;;;;;;22.03;39.95;101110.41;4112762;28;19927;-59
2023/06/08 05:53:55;;;;;;;;;;;;;;;22.05;39.87;101107.59;4113975;28;19965;-59
2023/06/08 05:55:57;;;;;;;;;;;;;;;22.04;40.14;101109.41;4113604;28;19976;-59
2023/06/08 05:57:58;;;;;;;;;;;;;;;22.03;39.76;101107.72;4113726;28;19970;-59
2023/06/08 06:00:00;;;;;;;;;;;;;;;22.03;40.08;101099.69;4113761;28;20364;-59
2023/06/08 06:02:01;;;;;;;;;;;;;;;22.04;40.03;101101.34;4112653;28;19933;-59
2023/06/08 06:04:03;;;;;;;;;;;;;;;22.02;40.07;101097.97;4113815;28;19932;-59
2023/06/08 06:06:16;;;;;;;;;;;;;;;22.05;40.11;101102.22;4113791;28;20406;-61
2023/06/08 06:08:18;;;;;;;;;;;;;;;22.05;40.12;101099.56;4113734;28;19980;-59
2023/06/08 06:10:19;;;;;;;;;;;;;;;22.03;40.26;101097.00;4113487;28;19974;-59
2023/06/08 06:12:21;;;;;;;;;;;;;;;22.04;40.10;101090.66;4143671;28;20001;-59
2023/06/08 06:14:22;;;;;;;;;;;;;;;22.04;40.07;101084.44;4128501;28;19933;-59
2023/06/08 06:16:24;;;;;;;;;;;;;;;22.03;40.08;101088.97;4113579;28;19948;-59
2023/06/08 06:18:25;;;;;;;;;;;;;;;22.03;40.12;101094.31;4113096;28;20292;-59
2023/06/08 06:20:29;;;;;;;;;;;;;;;22.04;40.07;101089.81;4113367;28;19974;-60
2023/06/08 06:22:31;;;;;;;;;;;;;;;22.03;40.19;101094.31;4113299;28;19980;-59
2023/06/08 06:24:32;;;;;;;;;;;;;;;22.02;40.14;101084.56;4113045;28;19965;-59
2023/06/08 06:26:34;;;;;;;;;;;;;;;22.03;40.24;101097.00;4113396;28;19930;-59
2023/06/08 06:28:35;;;;;;;;;;;;;;;22.01;39.93;101094.41;4113122;28;19926;-59
2023/06/08 06:30:37;;;;;;;;;;;;;;;22.01;40.27;101088.22;4112620;28;19976;-60
2023/06/08 06:32:38;;;;;;;;;;;;;;;22.00;40.37;101081.16;4113265;28;20017;-59
2023/06/08 06:34:42;;;;;;;;;;;;;;;22.00;40.37;101092.72;4124241;28;19979;-59
2023/06/08 06:36:43;;;;;;;;;;;;;;;22.00;40.18;101090.03;4129500;28;19925;-59
2023/06/08 06:38:45;;;;;;;;;;;;;;;22.01;40.40;101082.88;4120277;28;19930;-59
2023/06/08 06:40:50;;;;;;;;;;;;;;;22.00;40.50;101078.47;4112671;28;19933;-59
2023/06/08 06:42:52;;;;;;;;;;;;;;;22.00;40.28;101082.00;4113021;28;19962;-58
2023/06/08 06:44:53;;;;;;;;;;;;;;;22.00;40.56;101082.00;4113394;28;20302;-58
2023/06/08 06:46:55;;;;;;;;;;;;;;;22.01;40.32;101080.19;4113501;28;19926;-59
2023/06/08 06:48:58;;;;;;;;;;;;;;;22.01;41.45;101083.72;4113313;28;19968;-60
2023/06/08 06:50:59;;;;;;;;;;;;;;;22.04;40.95;101079.94;4112268;28;19980;-59
2023/06/08 06:53:01;;;;;;;;;;;;;;;22.04;42.03;101079.94;4112878;28;19932;-61
2023/06/08 06:55:03;;;;;;;;;;;;;;;22.03;42.27;101072.91;4113090;28;20363;-61
2023/06/08 06:57:04;;;;;;;;;;;;;;;22.05;41.69;101075.44;4144336;28;19934;-60
2023/06/08 06:59:06;;;;;;;;;;;;;;;22.06;41.97;101075.31;4113241;28;19926;-61
2023/06/08 07:01:07;;;;;;;;;;;;;;;22.09;42.71;101076.91;4112226;28;20327;-61
2023/06/08 07:03:16;;;;;;;;;;;;;;;22.11;42.35;101081.16;4112751;28;19927;-60
2023/06/08 07:05:19;;;;;;;;;;;;;;;22.14;42.25;101085.41;4112890;28;19937;-61
2023/06/08 07:07:23;;;;;;;;;;;;;;;22.15;42.40;101082.63;4112741;28;20388;-61
2023/06/08 07:09:25;;;;;;;;;;;;;;;22.17;42.44;101083.34;4113115;28;20287;-61
2023/06/08 07:11:28;;;;;;;;;;;;;;;22.21;42.47;101085.78;4112101;28;20062;-61
2023/06/08 07:13:30;;;;;;;;;;;;;;;22.24;42.53;101088.25;4112876;28;19936;-62
2023/06/08 07:15:33;;;;;;;;;;;;;;;22.26;42.02;101089.81;4113033;28;20419;-61
2023/06/08 07:17:35;;;;;;;;;;;;;;;22.28;42.57;101084.34;4112997;28;20356;-61
2023/06/08 07:19:39;;;;;;;;;;;;;;;22.27;42.41;101083.50;4113067;28;19932;-61
2023/06/08 07:21:41;;;;;;;;;;;;;;;22.30;42.39;101087.75;4111416;28;19926;-60
2023/06/08 07:23:53;;;;;;;;;;;;;;;22.31;42.01;101084.94;4112684;28;19934;-61
2023/06/08 07:26:14;;;;;;;;;;;;;;;22.33;42.01;101087.50;4112677;28;20456;-60
2023/06/08 07:28:31;;;;;;;;;;;;;;;22.33;42.26;101080.31;4112644;28;19926;-61
2023/06/08 07:30:32;;;;;;;;;;;;;;;22.36;42.02;101089.06;4113303;28;20377;-61
2023/06/08 07:32:34;;;;;;;;;;;;;;;22.36;42.13;101081.91;4114651;28;20021;-61
2023/06/08 07:34:36;;;;;;;;;;;;;;;22.36;42.16;101073.00;4126082;28;19926;-61
2023/06/08 07:36:37;;;;;;;;;;;;;;;22.38;42.20;101077.28;4131609;28;19979;-61
2023/06/08 07:38:39;;;;;;;;;;;;;;;22.40;42.27;101082.53;4123748;28;20445;-60
2023/06/08 07:40:41;;;;;;;;;;;;;;;22.40;42.10;101077.19;4115320;28;19926;-61
2023/06/08 07:42:43;;;;;;;;;;;;;;;22.38;42.15;101071.94;4114886;28;19955;-61
2023/06/08 07:44:44;;;;;;;;;;;;;;;22.37;42.39;101080.94;4115410;28;19935;-61
2023/06/08 07:46:46;;;;;;;;;;;;;;;22.38;42.13;101076.41;4115261;28;19964;-61
2023/06/08 07:48:48;;;;;;;;;;;;;;;22.39;42.50;101072.78;4115734;28;19957;-61
2023/06/08 07:50:49;;;;;;;;;;;;;;;22.40;42.38;101069.97;4114564;28;20013;-61
2023/06/08 07:52:51;;;;;;;;;;;;;;;22.41;42.33;101074.38;4115172;28;19945;-60
2023/06/08 07:54:52;;;;;;;;;;;;;;;22.43;42.05;101074.25;4115471;28;19932;-61
2023/06/08 07:56:54;;;;;;;;;;;;;;;22.44;42.33;101070.59;4115416;28;20299;-61
2023/06/08 07:58:55;;;;;;;;;;;;;;;22.45;42.52;101074.97;4115437;28;19926;-60
2023/06/08 08:00:57;;;;;;;;;;;;;;;22.45;42.10;101075.81;4114486;28;19968;-60
2023/06/08 08:02:59;;;;;;;;;;;;;;;22.45;42.35;101066.94;4115200;28;19937;-60
2023/06/08 08:05:02;;;;;;;;;;;;;;;22.42;42.44;101070.72;4114988;28;19933;-60
2023/06/08 08:07:04;;;;;;;;;;;;;;;22.44;42.87;101074.13;4115066;28;20383;-60
2023/06/08 08:09:06;;;;;;;;;;;;;;;22.43;42.88;101071.56;4115456;28;19938;-60
2023/06/08 08:11:08;;;;;;;;;;;;;;;22.42;42.61;101065.38;4114533;28;20017;-61
2023/06/08 08:13:12;;;;;;;;;;;;;;;22.44;42.95;101073.28;4114792;28;19958;-61
2023/06/08 08:15:13;;;;;;;;;;;;;;;22.45;42.99;101070.47;4115132;28;20395;-61
2023/06/08 08:17:15;;;;;;;;;;;;;;;22.45;42.99;101069.63;4115119;28;20414;-61
2023/06/08 08:19:17;;;;;;;;;;;;;;;22.44;43.12;101059.88;4114923;28;19981;-61
2023/06/08 08:21:18;;;;;;;;;;;;;;;22.45;42.91;101070.47;4113675;28;19934;-61
2023/06/08 08:23:20;;;;;;;;;;;;;;;22.46;42.58;101055.25;4114990;28;20033;-61
2023/06/08 08:25:21;;;;;;;;;;;;;;;22.49;42.62;101060.34;4113884;28;19927;-60
2023/06/08 08:27:23;;;;;;;;;;;;;;;22.49;42.65;101058.53;4114812;28;19930;-61
2023/06/08 08:29:24;;;;;;;;;;;;;;;22.49;42.91;101061.22;4114735;28;19980;-62
2023/06/08 08:31:26;;;;;;;;;;;;;;;22.50;42.86;101059.38;4113798;28;19930;-62
2023/06/08 08:33:28;;;;;;;;;;;;;;;22.52;42.66;101060.13;4116050;28;19933;-62
2023/06/08 08:35:31;;;;;;;;;;;;;;;22.53;43.02;101056.47;4130626;28;20299;-61
2023/06/08 08:37:33;;;;;;;;;;;;;;;22.53;42.99;101051.09;4130880;28;19933;-61
2023/06/08 08:39:35;;;;;;;;;;;;;;;22.51;43.14;101045.00;4115349;28;19926;-61
2023/06/08 08:41:40;;;;;;;;;;;;;;;22.49;42.91;101041.59;4113663;28;19930;-62
2023/06/08 08:43:44;;;;;;;;;;;;;;;22.51;42.90;101039.63;4114610;28;19927;-61
2023/06/08 08:45:47;;;;;;;;;;;;;;;22.49;43.34;101042.44;4114492;28;19976;-61
2023/06/08 08:47:53;;;;;;;;;;;;;;;22.51;43.23;101045.00;4114828;28;19926;-61
2023/06/08 08:49:58;;;;;;;;;;;;;;;22.52;43.35;101040.47;4114170;28;19927;-61
2023/06/08 08:52:01;;;;;;;;;;;;;;;22.49;43.42;101037.09;4113530;28;19953;-61
2023/06/08 08:54:02;;;;;;;;;;;;;;;22.47;43.86;101039.03;4114923;28;20001;-60
2023/06/08 08:56:06;;;;;;;;;;;;;;;22.48;43.90;101032.69;4114605;28;19926;-61
2023/06/08 08:58:09;;;;;;;;;;;;;;;22.51;44.39;101036.13;4114873;28;19926;-61
2023/06/08 09:00:14;;;;;;;;;;;;;;;22.51;43.80;101034.28;4114932;28;19942;-61
2023/06/08 09:02:16;;;;;;;;;;;;;;;22.52;43.41;101032.44;4113599;28;20388;-61
2023/06/08 09:04:18;;;;;;;;;;;;;;;22.54;43.57;101033.16;4114017;28;20017;-61
2023/06/08 09:06:19;;;;;;;;;;;;;;;22.54;43.88;101034.03;4114320;28;19927;-61
2023/06/08 09:08:22;;;;;;;;;;;;;;;22.55;44.07;101032.19;4114310;28;20416;-62
2023/06/08 09:10:25;;;;;;;;;;;;;;;22.56;43.64;101034.75;4145369;28;19932;-61
2023/06/08 09:12:37;;;;;;;;;;;;;;;22.56;44.01;101031.22;4113323;28;20343;-61
2023/06/08 09:14:55;;;;;;;;;;;;;;;22.56;44.34;101023.19;4112199;28;19926;-62
2023/06/08 09:17:01;;;;;;;;;;;;;;;22.58;43.64;101024.75;4111487;28;19973;-61
2023/06/08 09:19:04;;;;;;;;;;;;;;;22.58;43.60;101024.75;4113510;28;19972;-60
2023/06/08 09:21:26;;;;;;;;;;;;;;;22.58;43.39;101021.25;4108983;28;19976;-62
2023/06/08 09:23:28;;;;;;;;;;;;;;;22.59;43.69;101017.56;4111558;28;20443;-61
2023/06/08 09:25:36;;;;;;;;;;;;;;;22.59;43.66;101018.44;4113848;28;19956;-62
2023/06/08 09:27:38;;;;;;;;;;;;;;;22.63;43.19;101017.19;4121102;28;19926;-61
2023/06/08 09:29:40;;;;;;;;;;;;;;;22.64;43.10;101018.06;4138849;28;19926;-62
2023/06/08 09:31:49;;;;;;;;;;;;;;;22.65;43.35;101011.72;4114883;28;19926;-61
2023/06/08 09:34:03;;;;;;;;;;;;;;;22.68;43.55;101016.81;4116116;28;19973;-63
2023/06/08 09:36:06;;;;;;;;;;;;;;;22.70;43.83;101012.19;4112028;28;19933;-62
2023/06/08 09:38:20;;;;;;;;;;;;;;;22.71;44.19;101008.53;4133083;28;19944;-61
2023/06/08 09:40:22;;;;;;;;;;;;;;;22.75;43.74;101004.59;4198145;28;20352;-62
2023/06/08 09:42:43;;;;;;;;;;;;;;;22.77;44.42;101013.38;4119261;28;19935;-62
2023/06/08 09:44:44;;;;;;;;;;;;;;;22.80;44.67;100998.88;4122859;28;20005;-63
2023/06/08 09:46:46;;;;;;;;;;;;;;;22.80;44.75;100999.69;4115659;28;20383;-60
2023/06/08 09:48:54;;;;;;;;;;;;;;;22.84;44.83;101002.16;4113765;28;20415;-59
2023/06/08 09:51:00;;;;;;;;;;;;;;;22.85;45.60;101001.16;4114452;28;21427;-62
2023/06/08 09:53:03;;;;;;;;;;;;;;;22.96;46.29;101010.00;4109125;28;20024;-61
2023/06/08 09:55:05;;;;;;;;;;;;;;;23.05;45.40;101005.72;4112700;28;19926;-63
2023/06/08 09:57:08;;;;;;;;;;;;;;;23.13;45.44;101002.38;4113060;28;19941;-64
2023/06/08 09:59:13;;;;;;;;;;;;;;;23.18;45.17;100993.97;4111140;28;19926;-61
2023/06/08 10:01:16;;;;;;;;;;;;;;;23.20;44.61;101006.28;4114544;28;20340;-63
2023/06/08 10:03:24;;;;;;;;;;;;;;;23.25;44.91;101000.53;4113074;28;19926;-60
2023/06/08 10:05:29;;;;;;;;;;;;;;;23.31;44.62;100996.44;4109687;28;20025;-63
2023/06/08 10:07:35;;;;;;;;;;;;;;;23.36;44.24;100986.19;4111656;28;20013;-63
2023/06/08 10:09:41;;;;;;;;;;;;;;;23.44;44.25;100997.13;4113657;28;19928;-62
2023/06/08 10:11:43;;;;;;;;;;;;;;;23.50;44.40;100982.31;4109708;28;20431;-64
2023/06/08 10:13:45;;;;;;;;;;;;;;;23.56;43.87;100993.38;4110663;28;19983;-61
2023/06/08 10:15:47;;;;;;;;;;;;;;;23.61;43.78;100979.56;4112795;28;19957;-62
2023/06/08 10:17:49;;;;;;;;;;;;;;;23.65;43.89;100980.97;4113146;28;19932;-63
2023/06/08 10:19:51;;;;;;;;;;;;;;;23.72;43.68;100981.28;4113107;28;20029;-64
2023/06/08 10:21:54;;;;;;;;;;;;;;;23.75;44.20;100984.56;4112179;28;20672;-64
2023/06/08 10:24:01;;;;;;;;;;;;;;;23.86;43.54;100974.72;4112732;28;19926;-64
2023/06/08 10:26:04;;;;;;;;;;;;;;;23.92;43.61;100975.03;4112717;28;19973;-62
2023/06/08 10:28:06;;;;;;;;;;;;;;;23.96;43.68;100970.25;4111655;28;19930;-61
2023/06/08 10:30:24;;;;;;;;;;;;;;;23.96;43.24;100969.41;4110290;28;19932;-61
2023/06/08 10:32:34;;;;;;;;;;;;;;;23.91;43.62;100975.16;4111076;28;19937;-61